createdAt,value
2017-11-13T00:01:46.775Z,7.10
2017-11-13T00:04:14.903Z,7.00
2017-11-13T00:06:43.081Z,6.90
2017-11-13T00:09:11.219Z,7.00
2017-11-13T00:11:40.145Z,7.10
2017-11-13T00:14:08.266Z,7.10
2017-11-13T00:16:36.410Z,7.10
2017-11-13T00:19:04.543Z,7.10
2017-11-13T00:21:33.471Z,7.10
2017-11-13T00:24:01.595Z,7.10
2017-11-13T00:26:30.517Z,7.10
2017-11-13T00:28:58.639Z,7.10
2017-11-13T00:31:26.813Z,7.10
2017-11-13T00:33:54.945Z,7.10
2017-11-13T00:36:23.071Z,7.10
2017-11-13T00:38:51.225Z,7.10
2017-11-13T00:41:19.349Z,7.10
2017-11-13T00:43:48.268Z,7.10
2017-11-13T00:46:16.400Z,7.10
2017-11-13T00:48:45.321Z,7.00
2017-11-13T00:51:14.129Z,7.00
2017-11-13T00:53:42.293Z,7.00
2017-11-13T00:56:10.455Z,6.90
2017-11-13T00:58:38.608Z,6.80
2017-11-13T01:01:07.499Z,6.80
2017-11-13T01:03:36.417Z,6.80
2017-11-13T01:06:04.537Z,6.80
2017-11-13T01:08:32.681Z,6.90
2017-11-13T01:11:00.808Z,7.00
2017-11-13T01:13:29.742Z,7.00
2017-11-13T01:15:57.865Z,7.00
2017-11-13T01:18:26.784Z,7.10
2017-11-13T01:20:54.898Z,7.10
2017-11-13T01:23:23.042Z,7.10
2017-11-13T01:25:51.171Z,7.00
2017-11-13T01:28:19.321Z,7.10
2017-11-13T01:30:47.441Z,7.10
2017-11-13T01:33:15.592Z,7.10
2017-11-13T01:35:43.719Z,7.10
2017-11-13T01:38:11.893Z,7.20
2017-11-13T01:40:40.019Z,7.10
2017-11-13T01:43:08.945Z,7.10
2017-11-13T01:45:37.073Z,7.10
2017-11-13T01:48:05.217Z,7.10
2017-11-13T01:50:33.350Z,7.10
2017-11-13T01:53:01.514Z,7.10
2017-11-13T01:55:30.443Z,7.10
2017-11-13T01:57:58.569Z,7.10
2017-11-13T02:00:27.485Z,7.00
2017-11-13T02:02:55.616Z,7.00
2017-11-13T02:05:23.767Z,7.00
2017-11-13T02:07:51.913Z,7.00
2017-11-13T02:10:20.072Z,7.00
2017-11-13T02:12:48.204Z,7.10
2017-11-13T02:15:16.369Z,7.10
2017-11-13T02:17:44.504Z,7.10
2017-11-13T02:20:12.661Z,7.10
2017-11-13T02:22:40.808Z,7.00
2017-11-13T02:25:08.959Z,7.00
2017-11-13T02:27:37.091Z,7.00
2017-11-13T02:30:05.253Z,6.90
2017-11-13T02:32:33.389Z,7.00
2017-11-13T02:35:01.538Z,7.00
2017-11-13T02:37:29.672Z,7.10
2017-11-13T02:39:58.597Z,7.10
2017-11-13T02:42:26.727Z,7.10
2017-11-13T02:44:55.637Z,7.20
2017-11-13T02:47:23.768Z,7.20
2017-11-13T02:49:51.906Z,7.30
2017-11-13T02:52:20.034Z,7.20
2017-11-13T02:54:48.948Z,7.30
2017-11-13T02:57:17.067Z,7.30
2017-11-13T02:59:45.224Z,7.40
2017-11-13T03:02:13.356Z,7.30
2017-11-13T03:04:42.274Z,7.30
2017-11-13T03:07:10.389Z,7.30
2017-11-13T03:09:38.541Z,7.30
2017-11-13T03:12:06.674Z,7.40
2017-11-13T03:14:34.830Z,7.40
2017-11-13T03:17:03.728Z,7.40
2017-11-13T03:19:32.653Z,7.40
2017-11-13T03:22:00.806Z,7.40
2017-11-13T03:24:28.959Z,7.40
2017-11-13T03:26:57.874Z,7.40
2017-11-13T03:29:26.006Z,7.40
2017-11-13T03:31:54.166Z,7.30
2017-11-13T03:34:22.297Z,7.30
2017-11-13T03:36:50.453Z,7.30
2017-11-13T03:39:19.333Z,7.20
2017-11-13T03:41:47.486Z,7.20
2017-11-13T03:44:15.616Z,7.20
2017-11-13T03:46:43.821Z,7.30
2017-11-13T03:49:11.949Z,7.30
2017-11-13T03:51:40.103Z,7.30
2017-11-13T03:54:08.251Z,7.40
2017-11-13T03:56:36.402Z,7.40
2017-11-13T03:59:04.535Z,7.40
2017-11-13T04:01:33.456Z,7.20
2017-11-13T04:04:01.586Z,7.20
2017-11-13T04:06:29.753Z,7.20
2017-11-13T04:08:57.861Z,7.20
2017-11-13T04:11:26.015Z,7.20
2017-11-13T04:13:54.909Z,7.40
2017-11-13T04:16:23.839Z,7.40
2017-11-13T04:18:51.955Z,7.40
2017-11-13T04:21:20.111Z,7.30
2017-11-13T04:23:48.233Z,7.30
2017-11-13T04:26:16.384Z,7.40
2017-11-13T04:28:45.269Z,7.50
2017-11-13T04:31:13.420Z,7.50
2017-11-13T04:33:41.548Z,7.60
2017-11-13T04:36:09.731Z,7.70
2017-11-13T04:38:37.857Z,7.70
2017-11-13T04:41:06.004Z,7.70
2017-11-13T04:43:34.135Z,7.80
2017-11-13T04:46:03.050Z,7.70
2017-11-13T04:48:31.208Z,7.70
2017-11-13T04:50:59.344Z,7.80
2017-11-13T04:53:27.475Z,7.70
2017-11-13T04:55:55.581Z,7.70
2017-11-13T04:58:23.710Z,7.70
2017-11-13T05:00:51.830Z,7.70
2017-11-13T05:03:19.977Z,7.70
2017-11-13T05:05:48.116Z,7.70
2017-11-13T05:08:17.048Z,7.50
2017-11-13T05:10:45.162Z,7.50
2017-11-13T05:13:14.080Z,7.50
2017-11-13T05:15:42.194Z,7.40
2017-11-13T05:18:10.351Z,7.40
2017-11-13T05:20:38.487Z,7.50
2017-11-13T05:23:07.395Z,7.40
2017-11-13T05:25:35.510Z,7.40
2017-11-13T05:28:03.661Z,7.40
2017-11-13T05:30:31.800Z,7.30
2017-11-13T05:33:01.145Z,7.30
2017-11-13T05:35:29.284Z,7.30
2017-11-13T05:37:57.437Z,7.30
2017-11-13T05:40:26.327Z,7.20
2017-11-13T05:42:55.240Z,7.10
2017-11-13T05:45:23.354Z,7.10
2017-11-13T05:47:51.500Z,7.00
2017-11-13T05:50:19.627Z,7.00
2017-11-13T05:52:47.783Z,7.00
2017-11-13T05:55:15.910Z,7.00
2017-11-13T05:57:44.042Z,7.00
2017-11-13T06:00:12.165Z,6.90
2017-11-13T06:02:42.184Z,6.80
2017-11-13T06:05:10.318Z,6.90
2017-11-13T06:07:39.230Z,6.80
2017-11-13T06:10:07.352Z,6.80
2017-11-13T06:12:35.499Z,6.70
2017-11-13T06:15:03.662Z,6.70
2017-11-13T06:17:31.792Z,6.80
2017-11-13T06:19:59.936Z,6.80
2017-11-13T06:22:28.068Z,6.80
2017-11-13T06:24:56.198Z,6.90
2017-11-13T06:27:24.325Z,6.90
2017-11-13T06:29:52.480Z,6.90
2017-11-13T06:32:21.567Z,7.00
2017-11-13T06:34:49.728Z,7.00
2017-11-13T06:37:17.852Z,7.10
2017-11-13T06:39:45.993Z,7.10
2017-11-13T06:42:14.865Z,7.00
2017-11-13T06:44:43.008Z,7.00
2017-11-13T06:47:11.132Z,7.00
2017-11-13T06:49:40.053Z,6.90
2017-11-13T06:52:08.182Z,6.80
2017-11-13T06:54:36.323Z,6.90
2017-11-13T06:57:04.448Z,6.90
2017-11-13T06:59:33.367Z,6.90
2017-11-13T07:02:01.484Z,6.90
2017-11-13T07:04:29.626Z,7.10
2017-11-13T07:06:57.747Z,7.30
2017-11-13T07:09:26.660Z,7.70
2017-11-13T07:11:54.804Z,7.70
2017-11-13T07:14:22.979Z,7.70
2017-11-13T07:16:51.878Z,7.80
2017-11-13T07:19:20.800Z,7.80
2017-11-13T07:21:48.950Z,7.80
2017-11-13T07:24:17.854Z,7.90
2017-11-13T07:26:46.004Z,7.90
2017-11-13T07:29:14.205Z,8.00
2017-11-13T07:31:42.327Z,8.00
2017-11-13T07:34:10.494Z,8.00
2017-11-13T07:36:38.623Z,7.90
2017-11-13T07:39:06.754Z,7.90
2017-11-13T07:41:34.915Z,7.80
2017-11-13T07:44:03.028Z,7.90
2017-11-13T07:46:31.963Z,7.80
2017-11-13T07:49:00.096Z,7.80
2017-11-13T07:51:29.007Z,7.80
2017-11-13T07:53:57.128Z,7.80
2017-11-13T07:56:25.730Z,7.70
2017-11-13T07:58:54.640Z,7.70
2017-11-13T08:01:22.792Z,7.70
2017-11-13T08:03:51.686Z,7.70
2017-11-13T08:06:20.613Z,7.70
2017-11-13T08:08:48.728Z,7.70
2017-11-13T08:11:16.898Z,7.70
2017-11-13T08:13:45.028Z,7.70
2017-11-13T08:16:13.185Z,7.60
2017-11-13T08:18:41.317Z,7.60
2017-11-13T08:21:09.463Z,7.60
2017-11-13T08:23:37.591Z,7.50
2017-11-13T08:26:06.500Z,7.50
2017-11-13T08:28:34.626Z,7.40
2017-11-13T08:31:02.769Z,7.40
2017-11-13T08:33:30.887Z,7.30
2017-11-13T08:35:59.033Z,7.30
2017-11-13T08:38:27.151Z,7.40
2017-11-13T08:40:56.061Z,7.40
2017-11-13T08:43:24.196Z,7.40
2017-11-13T08:45:52.344Z,7.50
2017-11-13T08:48:20.457Z,7.60
2017-11-13T08:50:49.374Z,7.70
2017-11-13T08:53:17.483Z,7.70
2017-11-13T08:55:45.636Z,7.80
2017-11-13T08:58:13.750Z,7.80
2017-11-13T09:00:41.892Z,7.70
2017-11-13T09:03:10.035Z,7.80
2017-11-13T09:05:38.212Z,7.80
2017-11-13T09:08:06.822Z,7.90
2017-11-13T09:10:34.968Z,7.90
2017-11-13T09:13:03.126Z,8.00
2017-11-13T09:15:32.025Z,8.10
2017-11-13T09:18:00.928Z,8.10
2017-11-13T09:20:29.041Z,8.10
2017-11-13T09:22:57.180Z,8.30
2017-11-13T09:25:25.317Z,8.30
2017-11-13T09:27:53.460Z,8.30
2017-11-13T09:30:21.566Z,8.30
2017-11-13T09:32:50.488Z,8.20
2017-11-13T09:35:18.645Z,8.20
2017-11-13T09:37:46.796Z,8.30
2017-11-13T09:40:14.902Z,8.30
2017-11-13T09:42:43.053Z,8.30
2017-11-13T09:45:11.962Z,8.50
2017-11-13T09:47:40.110Z,8.40
2017-11-13T09:50:08.240Z,8.60
2017-11-13T09:52:36.404Z,8.60
2017-11-13T09:55:04.585Z,8.70
2017-11-13T09:57:32.727Z,8.80
2017-11-13T10:00:00.880Z,9.00
2017-11-13T10:02:29.788Z,9.20
2017-11-13T10:04:58.667Z,9.40
2017-11-13T10:07:27.607Z,9.50
2017-11-13T10:09:55.752Z,9.50
2017-11-13T10:12:23.909Z,9.60
2017-11-13T10:14:52.794Z,9.80
2017-11-13T10:17:21.696Z,9.80
2017-11-13T10:19:50.584Z,10.00
2017-11-13T10:22:19.540Z,10.00
2017-11-13T10:24:47.707Z,10.00
2017-11-13T10:27:15.909Z,9.90
2017-11-13T10:29:44.831Z,9.80
2017-11-13T10:32:13.062Z,9.80
2017-11-13T10:34:41.241Z,9.80
2017-11-13T10:37:09.409Z,9.70
2017-11-13T10:39:37.607Z,9.60
2017-11-13T10:42:06.549Z,9.50
2017-11-13T10:44:34.741Z,9.50
2017-11-13T10:47:02.949Z,9.50
2017-11-13T10:49:31.922Z,9.40
2017-11-13T10:52:00.103Z,9.40
2017-11-13T10:54:29.061Z,9.30
2017-11-13T10:56:57.241Z,9.30
2017-11-13T10:59:25.441Z,9.30
2017-11-13T11:01:54.378Z,9.40
2017-11-13T11:04:22.581Z,9.40
2017-11-13T11:06:50.753Z,9.40
2017-11-13T11:09:19.246Z,9.30
2017-11-13T11:11:47.409Z,9.30
2017-11-13T11:14:18.387Z,9.30
2017-11-13T11:17:16.023Z,9.30
2017-11-13T11:19:44.633Z,9.20
2017-11-13T11:22:15.250Z,9.20
2017-11-13T11:24:43.388Z,9.20
2017-11-13T11:27:26.382Z,9.30
2017-11-13T11:29:55.281Z,9.10
2017-11-13T11:32:27.918Z,9.10
2017-11-13T11:34:56.509Z,9.10
2017-11-13T11:37:27.111Z,9.10
2017-11-13T11:39:55.251Z,9.10
2017-11-13T11:42:23.350Z,9.10
2017-11-13T11:44:51.484Z,9.10
2017-11-13T11:47:20.356Z,9.00
2017-11-13T11:49:49.259Z,9.00
2017-11-13T11:52:18.144Z,9.00
2017-11-13T11:55:01.957Z,9.00
2017-11-13T11:57:30.984Z,9.10
2017-11-13T11:59:59.887Z,9.00
2017-11-13T12:02:28.005Z,9.00
2017-11-13T12:04:56.142Z,9.00
2017-11-13T12:07:24.246Z,9.00
2017-11-13T12:09:52.385Z,9.00
2017-11-13T12:12:20.497Z,9.00
2017-11-13T12:14:48.638Z,9.00
2017-11-13T12:17:16.748Z,9.00
2017-11-13T12:19:44.879Z,8.90
2017-11-13T12:22:12.991Z,8.90
2017-11-13T12:24:41.140Z,8.90
2017-11-13T12:27:09.248Z,8.90
2017-11-13T12:29:37.401Z,8.90
2017-11-13T12:32:05.518Z,8.90
2017-11-13T12:34:34.414Z,9.00
2017-11-13T12:37:03.285Z,9.10
2017-11-13T12:39:32.179Z,9.10
2017-11-13T12:42:00.310Z,9.10
2017-11-13T12:44:28.414Z,9.10
2017-11-13T12:46:56.542Z,9.10
2017-11-13T12:49:24.652Z,9.20
2017-11-13T12:51:52.775Z,9.20
2017-11-13T12:54:20.880Z,9.10
2017-11-13T12:56:50.306Z,9.10
2017-11-13T12:59:18.411Z,9.10
2017-11-13T13:01:47.305Z,9.00
2017-11-13T13:04:16.180Z,9.00
2017-11-13T13:06:45.076Z,9.00
2017-11-13T13:09:13.883Z,9.00
2017-11-13T13:11:42.021Z,9.00
2017-11-13T13:14:10.142Z,9.00
2017-11-13T13:16:38.257Z,9.00
2017-11-13T13:19:06.375Z,8.90
2017-11-13T13:21:34.517Z,8.90
2017-11-13T13:24:02.625Z,8.90
2017-11-13T13:26:30.758Z,8.90
2017-11-13T13:28:58.908Z,8.80
2017-11-13T13:31:27.057Z,8.80
2017-11-13T13:33:55.149Z,8.80
2017-11-13T13:36:23.289Z,8.80
2017-11-13T13:38:51.408Z,8.80
2017-11-13T13:41:19.525Z,8.80
2017-11-13T13:43:47.668Z,8.90
2017-11-13T13:46:16.223Z,8.90
2017-11-13T13:48:44.330Z,8.80
2017-11-13T13:51:12.458Z,8.80
2017-11-13T13:53:41.429Z,8.90
2017-11-13T13:56:09.549Z,8.90
2017-11-13T13:58:38.826Z,8.90
2017-11-13T14:01:06.948Z,8.90
2017-11-13T14:03:35.106Z,8.90
2017-11-13T14:06:03.243Z,8.80
2017-11-13T14:08:31.379Z,8.90
2017-11-13T14:11:00.265Z,8.80
2017-11-13T14:13:29.188Z,8.70
2017-11-13T14:15:57.301Z,8.70
2017-11-13T14:18:25.447Z,8.60
2017-11-13T14:20:53.576Z,8.50
2017-11-13T14:23:38.538Z,8.50
2017-11-13T14:26:06.655Z,8.40
2017-11-13T14:28:34.772Z,8.30
2017-11-13T14:31:02.868Z,8.30
2017-11-13T14:33:31.005Z,8.30
2017-11-13T14:35:59.136Z,8.30
2017-11-13T14:38:28.038Z,8.10
2017-11-13T14:40:56.156Z,8.10
2017-11-13T14:43:24.291Z,8.10
2017-11-13T14:45:52.460Z,8.10
2017-11-13T14:48:20.589Z,8.10
2017-11-13T14:50:48.693Z,8.00
2017-11-13T14:53:17.590Z,7.90
2017-11-13T14:55:46.467Z,7.90
2017-11-13T14:58:15.383Z,7.90
2017-11-13T15:00:43.494Z,7.90
2017-11-13T15:03:11.646Z,7.90
2017-11-13T15:05:39.761Z,7.80
2017-11-13T15:08:07.906Z,7.80
2017-11-13T15:10:36.015Z,7.70
2017-11-13T15:13:04.141Z,7.70
2017-11-13T15:15:32.229Z,7.60
2017-11-13T15:18:01.702Z,7.60
2017-11-13T15:20:30.991Z,7.50
2017-11-13T15:23:04.248Z,7.30
2017-11-13T15:25:32.957Z,7.30
2017-11-13T15:28:01.088Z,7.30
2017-11-13T15:30:29.223Z,7.30
2017-11-13T15:32:58.107Z,7.20
2017-11-13T15:35:27.024Z,7.10
2017-11-13T15:37:55.147Z,7.10
2017-11-13T15:40:23.283Z,7.10
2017-11-13T15:42:51.405Z,7.10
2017-11-13T15:45:20.323Z,7.10
2017-11-13T15:47:48.448Z,7.10
2017-11-13T15:50:16.703Z,7.00
2017-11-13T15:52:45.014Z,6.90
2017-11-13T15:55:14.369Z,6.70
2017-11-13T15:57:43.863Z,6.70
2017-11-13T16:00:12.025Z,6.80
2017-11-13T16:02:45.644Z,6.80
2017-11-13T16:05:13.817Z,6.80
2017-11-13T16:07:56.853Z,6.80
2017-11-13T16:10:25.801Z,6.80
2017-11-13T16:12:54.091Z,6.70
2017-11-13T16:15:22.276Z,6.60
2017-11-13T16:17:54.300Z,6.60
2017-11-13T16:20:23.872Z,6.50
2017-11-13T16:22:52.307Z,6.30
2017-11-13T16:25:21.212Z,6.30
2017-11-13T16:27:53.509Z,6.30
2017-11-13T16:30:22.000Z,6.30
2017-11-13T16:32:50.245Z,6.00
2017-11-13T16:35:22.156Z,6.00
2017-11-13T16:37:50.269Z,5.90
2017-11-13T16:40:19.186Z,6.00
2017-11-13T16:42:47.310Z,6.00
2017-11-13T16:45:18.104Z,6.00
2017-11-13T16:47:57.011Z,6.10
2017-11-13T16:50:32.016Z,6.00
2017-11-13T16:53:00.913Z,6.00
2017-11-13T16:55:29.812Z,6.10
2017-11-13T16:57:58.687Z,6.00
2017-11-13T17:00:35.586Z,6.00
2017-11-13T17:03:04.973Z,6.10
2017-11-13T17:05:33.896Z,6.00
2017-11-13T17:08:03.189Z,6.00
2017-11-13T17:10:31.559Z,6.00
2017-11-13T17:13:03.775Z,6.00
2017-11-13T17:15:33.117Z,6.00
2017-11-13T17:18:02.006Z,6.20
2017-11-13T17:20:30.168Z,6.10
2017-11-13T17:23:00.413Z,6.10
2017-11-13T17:25:28.845Z,6.10
2017-11-13T17:27:56.982Z,6.10
2017-11-13T17:30:38.210Z,6.10
2017-11-13T17:33:07.640Z,6.00
2017-11-13T17:35:38.805Z,6.00
2017-11-13T17:38:07.303Z,5.90
2017-11-13T17:40:36.286Z,6.00
2017-11-13T17:43:06.080Z,5.90
2017-11-13T17:45:35.037Z,5.70
2017-11-13T17:48:03.163Z,5.70
2017-11-13T17:50:31.304Z,5.70
2017-11-13T17:53:00.944Z,5.90
2017-11-13T17:55:29.100Z,5.90
2017-11-13T17:57:57.987Z,5.70
2017-11-13T18:00:26.884Z,5.70
2017-11-13T18:02:56.249Z,5.70
2017-11-13T18:05:24.384Z,5.70
2017-11-13T18:07:54.971Z,5.70
2017-11-13T18:10:23.460Z,5.70
2017-11-13T18:12:52.371Z,5.70
2017-11-13T18:15:23.495Z,5.70
2017-11-13T18:17:53.895Z,5.60
2017-11-13T18:20:22.305Z,5.40
2017-11-13T18:25:25.577Z,5.30
2017-11-13T18:27:53.716Z,5.40
2017-11-13T18:30:21.991Z,5.40
2017-11-13T18:32:51.275Z,5.50
2017-11-13T18:35:27.742Z,5.40
2017-11-13T18:37:56.018Z,5.40
2017-11-13T18:40:27.149Z,5.30
2017-11-13T18:42:55.705Z,5.30
2017-11-13T18:45:23.844Z,5.30
2017-11-13T18:47:55.369Z,5.30
2017-11-13T18:50:24.749Z,5.30
2017-11-13T18:52:52.900Z,5.40
2017-11-13T18:55:21.027Z,5.40
2017-11-13T18:57:49.323Z,5.30
2017-11-13T19:00:17.448Z,5.40
2017-11-13T19:02:45.633Z,5.60
2017-11-13T19:05:14.526Z,5.50
2017-11-13T19:07:43.901Z,5.50
2017-11-13T19:10:12.032Z,5.40
2017-11-13T19:12:40.171Z,5.40
2017-11-13T19:15:09.565Z,5.30
2017-11-13T19:17:40.687Z,5.30
2017-11-13T19:20:17.462Z,5.30
2017-11-13T19:22:46.709Z,5.10
2017-11-13T19:25:15.575Z,5.00
2017-11-13T19:27:53.535Z,5.00
2017-11-13T19:30:21.892Z,5.10
2017-11-13T19:32:50.037Z,5.00
2017-11-13T19:35:27.184Z,5.10
2017-11-13T19:37:55.593Z,5.10
2017-11-13T19:40:23.697Z,5.10
2017-11-13T19:42:57.358Z,5.10
2017-11-13T19:45:25.824Z,5.10
2017-11-13T19:47:53.977Z,5.00
2017-11-13T19:50:28.381Z,5.00
2017-11-13T19:52:57.597Z,5.00
2017-11-13T19:55:25.710Z,5.10
2017-11-13T20:00:29.572Z,4.80
2017-11-13T20:02:57.713Z,4.90
2017-11-13T20:05:28.336Z,4.90
2017-11-13T20:07:57.259Z,5.00
2017-11-13T20:10:26.179Z,5.00
2017-11-13T20:12:54.295Z,5.00
2017-11-13T20:15:22.466Z,5.00
2017-11-13T20:17:58.631Z,5.00
2017-11-13T20:20:28.713Z,5.00
2017-11-13T20:22:57.277Z,4.90
2017-11-13T20:25:28.325Z,4.80
2017-11-13T20:27:56.865Z,4.90
2017-11-13T20:30:25.015Z,4.90
2017-11-13T20:32:53.132Z,4.90
2017-11-13T20:35:22.040Z,4.80
2017-11-13T20:37:50.190Z,4.80
2017-11-13T20:40:19.105Z,4.60
2017-11-13T20:42:47.222Z,4.60
2017-11-13T20:45:17.368Z,4.70
2017-11-13T20:47:46.575Z,4.70
2017-11-13T20:50:15.495Z,4.70
2017-11-13T20:52:52.178Z,4.70
2017-11-13T20:55:20.653Z,4.60
2017-11-13T20:57:48.776Z,4.50
2017-11-13T21:00:16.928Z,4.50
2017-11-13T21:02:45.058Z,4.40
2017-11-13T21:05:13.206Z,4.40
2017-11-13T21:07:47.681Z,4.40
2017-11-13T21:10:17.016Z,4.40
2017-11-13T21:12:52.997Z,4.30
2017-11-13T21:15:22.759Z,4.30
2017-11-13T21:17:56.624Z,4.30
2017-11-13T21:20:32.806Z,4.40
2017-11-13T21:23:00.928Z,4.30
2017-11-13T21:25:29.075Z,4.30
2017-11-13T21:27:59.765Z,4.30
2017-11-13T21:30:28.936Z,4.10
2017-11-13T21:33:01.959Z,4.10
2017-11-13T21:35:37.551Z,4.20
2017-11-13T21:38:11.521Z,4.20
2017-11-13T21:40:40.001Z,4.20
2017-11-13T21:43:08.131Z,4.20
2017-11-13T21:45:36.413Z,4.10
2017-11-13T21:48:04.643Z,4.10
2017-11-13T21:50:32.784Z,4.10
2017-11-13T21:53:01.678Z,4.20
2017-11-13T21:55:36.709Z,4.20
2017-11-13T22:00:53.729Z,4.30
2017-11-13T22:06:04.585Z,4.30
2017-11-13T22:08:33.456Z,4.30
2017-11-13T22:11:02.551Z,4.30
2017-11-13T22:13:31.403Z,4.40
2017-11-13T22:16:00.244Z,4.40
2017-11-13T22:18:29.488Z,4.40
2017-11-13T22:20:58.404Z,4.50
2017-11-13T22:23:26.549Z,4.40
2017-11-13T22:25:55.471Z,4.40
2017-11-13T22:28:23.593Z,4.40
2017-11-13T22:30:51.788Z,4.30
2017-11-13T22:33:19.898Z,4.40
2017-11-13T22:35:48.019Z,4.40
2017-11-13T22:38:16.164Z,4.50
2017-11-13T22:40:44.288Z,4.50
2017-11-13T22:43:13.197Z,4.60
2017-11-13T22:45:41.429Z,4.60
2017-11-13T22:48:09.587Z,4.60
2017-11-13T22:50:37.709Z,4.70
2017-11-13T22:53:06.655Z,4.80
2017-11-13T22:55:34.770Z,4.80
2017-11-13T22:58:03.695Z,4.90
2017-11-13T23:00:31.824Z,4.90
2017-11-13T23:02:59.982Z,5.00
2017-11-13T23:05:28.099Z,5.00
2017-11-13T23:07:56.274Z,4.90
2017-11-13T23:10:24.491Z,4.90
2017-11-13T23:12:52.635Z,4.80
2017-11-13T23:15:20.775Z,4.70
2017-11-13T23:17:49.781Z,4.70
2017-11-13T23:20:18.663Z,4.70
2017-11-13T23:22:46.804Z,4.70
2017-11-13T23:25:14.922Z,4.80
2017-11-13T23:27:43.066Z,4.80
2017-11-13T23:30:11.198Z,5.00
2017-11-13T23:32:40.202Z,5.00
2017-11-13T23:35:09.153Z,5.00
2017-11-13T23:37:37.309Z,5.00
2017-11-13T23:40:05.432Z,5.10
2017-11-13T23:42:33.559Z,5.10
2017-11-13T23:45:01.690Z,5.30
2017-11-13T23:47:29.830Z,5.50
2017-11-13T23:49:58.750Z,5.40
2017-11-13T23:52:26.891Z,5.40
2017-11-13T23:54:55.795Z,5.30
2017-11-13T23:57:24.719Z,5.30
2017-11-13T23:59:52.842Z,5.30
